Time;durP1;ratioP1;P1;durP2;ratioP2;P2;SDS_P1;SDS_P2;PMS_P1;PMS_P2;Temp;Humidity;BMP_temperature;BMP_pressure;BME280_temperature;BME280_humidity;BME280_pressure;Samples;Min_cycle;Max_cycle;Signal;HPM_P1;HPM_P2
2021/07/26 00:00:22;;;;;;;9.03;8.00;;;;;;;19.94;74.54;100168.16;5017399;28;20210;-66
2021/07/26 00:02:50;;;;;;;9.00;8.17;;;;;;;19.92;74.25;100171.03;5017741;28;20699;-66
2021/07/26 00:05:16;;;;;;;9.40;8.50;;;;;;;19.90;74.65;100158.69;5014263;28;20226;-67
2021/07/26 00:07:43;;;;;;;7.77;7.07;;;;;;;19.86;74.34;100160.91;5014920;28;20210;-67
2021/07/26 00:10:10;;;;;;;8.20;7.00;;;;;;;19.83;74.13;100160.41;5026221;28;20209;-67
2021/07/26 00:12:36;;;;;;;9.97;7.20;;;;;;;19.76;74.00;100160.22;5031395;28;20205;-68
2021/07/26 00:15:06;;;;;;;10.17;7.13;;;;;;;19.68;73.63;100152.13;5027125;28;20242;-66
2021/07/26 00:17:33;;;;;;;8.33;7.50;;;;;;;19.62;73.28;100166.28;5032345;28;20204;-66
2021/07/26 00:20:01;;;;;;;8.07;7.27;;;;;;;19.52;73.34;100171.00;5031098;28;20588;-66
2021/07/26 00:22:27;;;;;;;8.47;7.57;;;;;;;19.40;73.08;100171.28;5018408;28;20714;-65
2021/07/26 00:24:54;;;;;;;9.83;7.77;;;;;;;19.27;73.15;100178.16;5030692;28;20545;-65
2021/07/26 00:27:20;;;;;;;8.67;7.83;;;;;;;19.18;73.87;100182.69;5032183;28;20215;-66
2021/07/26 00:29:47;;;;;;;9.80;8.37;;;;;;;19.11;74.43;100187.06;5030387;28;20571;-65
2021/07/26 00:32:13;;;;;;;10.50;7.83;;;;;;;19.06;74.73;100187.53;5027730;28;20208;-68
2021/07/26 00:34:40;;;;;;;9.00;7.97;;;;;;;19.05;75.21;100187.69;5024288;28;20729;-68
2021/07/26 00:37:08;;;;;;;9.07;8.17;;;;;;;19.03;75.62;100181.63;5028424;28;20215;-68
2021/07/26 00:39:36;;;;;;;8.97;8.00;;;;;;;19.02;75.98;100177.22;5026349;28;20217;-68
2021/07/26 00:42:04;;;;;;;8.57;7.77;;;;;;;19.01;76.44;100170.97;5031599;28;20219;-68
2021/07/26 00:44:32;;;;;;;10.17;8.60;;;;;;;19.03;76.68;100168.13;5026397;28;20726;-66
2021/07/26 00:47:00;;;;;;;10.23;9.07;;;;;;;19.05;76.93;100174.22;5025471;28;20211;-68
2021/07/26 00:49:27;;;;;;;9.37;8.47;;;;;;;19.04;77.02;100172.50;5031078;28;20262;-67
2021/07/26 00:51:56;;;;;;;10.03;7.93;;;;;;;19.00;76.85;100176.53;5031870;28;20206;-68
2021/07/26 00:54:26;;;;;;;9.77;8.73;;;;;;;18.90;76.85;100184.78;5031608;28;20206;-66
2021/07/26 00:56:54;;;;;;;9.77;8.70;;;;;;;18.84;77.36;100196.22;5031339;28;20206;-67
2021/07/26 00:59:21;;;;;;;9.50;8.60;;;;;;;18.82;78.01;100191.97;5025098;28;20214;-68
2021/07/26 01:01:48;;;;;;;10.37;9.47;;;;;;;18.86;78.75;100194.19;5030623;28;20251;-66
2021/07/26 01:04:14;;;;;;;9.17;8.37;;;;;;;18.92;79.13;100193.56;5031135;28;20673;-68
2021/07/26 01:06:41;;;;;;;10.13;9.13;;;;;;;18.99;79.58;100201.84;5031096;28;20208;-68
2021/07/26 01:09:08;;;;;;;10.13;9.17;;;;;;;19.02;79.87;100202.38;5031466;28;20203;-67
2021/07/26 01:11:36;;;;;;;10.10;9.10;;;;;;;19.05;79.83;100204.75;5030961;28;20221;-67
2021/07/26 01:14:03;;;;;;;9.83;8.87;;;;;;;19.08;79.82;100204.41;5028412;28;20207;-69
2021/07/26 01:16:30;;;;;;;8.53;7.73;;;;;;;19.08;79.77;100206.28;5028705;28;20216;-67
2021/07/26 01:19:00;;;;;;;9.60;7.90;;;;;;;19.06;79.79;100209.13;5031134;28;20290;-69
2021/07/26 01:21:30;;;;;;;10.13;9.13;;;;;;;19.03;79.40;100206.75;5031330;28;20230;-67
2021/07/26 01:23:57;;;;;;;9.27;8.33;;;;;;;19.00;79.44;100212.47;5024241;28;20211;-68
2021/07/26 01:26:27;;;;;;;9.93;8.70;;;;;;;18.95;79.35;100203.19;5025306;28;20711;-68
2021/07/26 01:28:55;;;;;;;14.03;8.53;;;;;;;18.90;79.36;100198.28;5031198;28;20208;-68
2021/07/26 01:31:22;;;;;;;8.87;7.90;;;;;;;18.85;79.29;100192.50;5030739;28;20209;-67
2021/07/26 01:33:50;;;;;;;10.07;9.07;;;;;;;18.84;79.63;100196.22;5023463;28;20616;-68
2021/07/26 01:36:17;;;;;;;9.87;8.87;;;;;;;18.84;79.85;100196.22;5030266;28;20227;-68
2021/07/26 01:38:45;;;;;;;9.87;8.77;;;;;;;18.85;79.81;100192.50;5031024;28;20207;-67
2021/07/26 01:41:18;;;;;;;9.37;8.43;;;;;;;18.89;79.88;100193.03;5030170;28;20210;-66
2021/07/26 01:44:01;;;;;;;10.37;9.33;;;;;;;18.91;79.96;100191.03;5030878;28;20256;-68
2021/07/26 01:46:35;;;;;;;9.03;8.00;;;;;;;18.94;79.83;100190.69;5030482;28;20573;-67
2021/07/26 01:49:15;;;;;;;10.17;9.17;;;;;;;18.97;79.99;100191.22;5029939;28;20235;-66
2021/07/26 01:51:45;;;;;;;9.30;8.40;;;;;;;19.00;80.01;100196.28;5030092;28;20209;-67
2021/07/26 01:54:13;;;;;;;12.40;9.23;;;;;;;19.03;79.96;100187.88;5030397;28;20214;-67
2021/07/26 01:56:40;;;;;;;10.30;9.10;;;;;;;19.05;79.87;100195.81;5024977;28;20211;-68
2021/07/26 01:59:07;;;;;;;10.40;9.27;;;;;;;19.08;80.08;100196.31;5031049;28;20207;-67
2021/07/26 02:01:34;;;;;;;10.23;9.30;;;;;;;19.12;80.11;100185.22;5025703;28;20209;-68
2021/07/26 02:04:00;;;;;;;10.87;9.77;;;;;;;19.13;80.11;100179.66;5030616;28;20207;-67
2021/07/26 02:06:27;;;;;;;10.43;9.07;;;;;;;19.15;79.84;100174.94;5022284;28;20239;-67
2021/07/26 02:08:54;;;;;;;9.87;8.93;;;;;;;19.16;79.88;100181.19;5026367;28;20211;-67
2021/07/26 02:11:22;;;;;;;9.63;8.73;;;;;;;19.18;79.80;100179.97;5030117;28;20594;-66
2021/07/26 02:13:49;;;;;;;9.80;8.80;;;;;;;19.19;79.99;100187.06;5030240;28;20968;-67
2021/07/26 02:16:15;;;;;;;10.40;9.33;;;;;;;19.21;79.62;100181.50;5030471;28;20247;-67
2021/07/26 02:18:42;;;;;;;10.50;8.20;;;;;;;19.15;79.41;100191.13;5030330;28;20220;-67
2021/07/26 02:21:08;;;;;;;10.93;8.63;;;;;;;19.11;79.64;100189.75;5030643;28;20199;-66
2021/07/26 02:23:35;;;;;;;10.87;8.67;;;;;;;19.07;79.66;100177.59;5030105;28;20298;-67
2021/07/26 02:26:01;;;;;;;10.30;8.77;;;;;;;19.07;79.97;100185.69;5029899;28;20218;-67
2021/07/26 02:28:29;;;;;;;9.47;8.47;;;;;;;19.08;79.94;100173.88;5030189;28;20676;-68
2021/07/26 02:30:56;;;;;;;10.77;8.93;;;;;;;19.07;79.92;100166.78;5026881;28;20214;-67
2021/07/26 02:33:22;;;;;;;8.63;7.83;;;;;;;19.06;79.85;100171.34;5030097;28;20573;-67
2021/07/26 02:35:49;;;;;;;9.03;8.17;;;;;;;19.07;79.77;100178.44;5028906;28;20236;-68
2021/07/26 02:38:15;;;;;;;9.37;8.40;;;;;;;19.06;79.65;100182.16;5018302;28;20207;-67
2021/07/26 02:40:42;;;;;;;8.97;8.07;;;;;;;19.04;79.40;100180.63;5022400;28;20211;-67
2021/07/26 02:43:08;;;;;;;9.93;8.60;;;;;;;19.02;79.42;100182.63;5024936;28;20235;-67
2021/07/26 02:45:37;;;;;;;8.87;7.83;;;;;;;19.01;79.39;100189.03;5027650;28;20227;-67
2021/07/26 02:48:04;;;;;;;10.63;8.53;;;;;;;18.99;79.50;100186.50;5027285;28;20682;-66
2021/07/26 02:50:30;;;;;;;8.47;7.53;;;;;;;18.97;79.18;100196.63;5026057;28;20210;-65
2021/07/26 02:53:00;;;;;;;7.93;7.13;;;;;;;18.96;78.99;100192.25;5029703;28;20207;-65
2021/07/26 02:55:29;;;;;;;8.63;7.77;;;;;;;18.95;78.95;100184.31;5033019;28;20231;-66
2021/07/26 02:57:56;;;;;;;7.73;6.93;;;;;;;18.94;78.97;100188.84;5022706;28;20219;-66
2021/07/26 03:00:23;;;;;;;7.90;7.10;;;;;;;18.96;78.83;100191.41;5034105;28;20225;-66
2021/07/26 03:02:51;;;;;;;10.60;7.80;;;;;;;18.98;78.87;100192.06;5033033;28;20238;-66
2021/07/26 03:05:18;;;;;;;13.33;8.40;;;;;;;18.96;78.56;100199.50;5033836;28;20233;-66
2021/07/26 03:07:44;;;;;;;8.63;7.73;;;;;;;18.94;78.64;100202.34;5033203;28;20832;-66
2021/07/26 03:10:12;;;;;;;9.23;7.30;;;;;;;18.94;78.58;100210.44;5033830;28;20203;-66
2021/07/26 03:12:38;;;;;;;8.70;7.80;;;;;;;18.92;78.59;100201.66;5026817;28;20213;-66
2021/07/26 03:15:08;;;;;;;8.87;8.07;;;;;;;18.93;78.40;100211.44;5033337;28;20232;-67
2021/07/26 03:17:34;;;;;;;8.67;7.17;;;;;;;18.92;78.56;100217.84;5033494;28;20209;-66
2021/07/26 03:20:02;;;;;;;8.40;7.50;;;;;;;18.92;78.50;100214.31;5026266;28;20201;-66
2021/07/26 03:22:53;;;;;;;11.17;8.00;;;;;;;18.90;78.37;100222.56;5033052;28;21010;-65
2021/07/26 03:25:20;;;;;;;9.00;8.13;;;;;;;18.83;78.03;100221.50;5033418;28;20605;-66
2021/07/26 03:27:48;;;;;;;9.27;7.53;;;;;;;18.75;77.83;100226.00;5032952;28;20203;-66
2021/07/26 03:30:15;;;;;;;10.70;9.00;;;;;;;18.66;77.76;100234.03;5033337;28;20208;-66
2021/07/26 03:32:41;;;;;;;10.23;8.93;;;;;;;18.60;78.23;100233.84;5032431;28;20204;-66
2021/07/26 03:35:10;;;;;;;9.27;8.30;;;;;;;18.58;78.45;100231.28;5033114;28;20237;-66
2021/07/26 03:37:37;;;;;;;9.97;8.97;;;;;;;18.58;78.59;100236.69;5032311;28;20686;-66
2021/07/26 03:40:04;;;;;;;8.70;7.80;;;;;;;18.59;78.81;100230.31;5033414;28;20204;-66
2021/07/26 03:42:30;;;;;;;10.13;8.93;;;;;;;18.61;78.91;100249.03;5032560;28;20604;-66
2021/07/26 03:44:57;;;;;;;9.00;8.10;;;;;;;18.60;78.89;100237.41;5032151;28;20222;-66
2021/07/26 03:47:24;;;;;;;9.13;8.23;;;;;;;18.59;78.78;100241.09;5022406;28;20218;-66
2021/07/26 03:49:51;;;;;;;14.67;8.87;;;;;;;18.55;78.63;100228.03;5032384;28;20207;-66
2021/07/26 03:52:19;;;;;;;8.83;7.27;;;;;;;18.54;78.85;100237.16;5032694;28;20412;-66
2021/07/26 03:54:45;;;;;;;7.13;6.43;;;;;;;18.52;78.94;100231.06;5032485;28;20234;-65
2021/07/26 03:57:12;;;;;;;8.73;6.97;;;;;;;18.51;79.03;100241.00;5032669;28;20207;-67
2021/07/26 03:59:38;;;;;;;8.97;6.77;;;;;;;18.47;78.82;100250.41;5032438;28;20221;-67
2021/07/26 04:02:05;;;;;;;7.50;6.80;;;;;;;18.43;78.90;100256.28;5023298;28;20691;-67
2021/07/26 04:04:32;;;;;;;9.83;8.30;;;;;;;18.41;79.39;100256.44;5024593;28;20603;-67
2021/07/26 04:07:00;;;;;;;8.97;7.57;;;;;;;18.43;79.86;100258.97;5032590;28;20203;-67
2021/07/26 04:09:33;;;;;;;8.70;7.77;;;;;;;18.44;80.20;100264.22;5028681;28;20216;-65
2021/07/26 04:12:02;;;;;;;9.20;8.27;;;;;;;18.47;80.52;100269.28;5025368;28;20214;-67
2021/07/26 04:14:31;;;;;;;10.77;8.63;;;;;;;18.51;80.93;100276.06;5031481;28;20798;-67
2021/07/26 04:16:57;;;;;;;9.90;8.90;;;;;;;18.55;81.39;100272.03;5066515;22;20718;-72
2021/07/26 04:19:24;;;;;;;10.77;8.63;;;;;;;18.60;81.76;100277.84;5062356;28;20222;-75
2021/07/26 04:21:55;;;;;;;9.60;8.70;;;;;;;18.64;81.97;100273.81;5064653;28;20216;-74
2021/07/26 04:24:22;;;;;;;10.00;8.70;;;;;;;18.67;82.07;100284.28;5064133;28;20608;-72
2021/07/26 04:26:50;;;;;;;10.50;8.57;;;;;;;18.68;82.17;100277.91;5056907;28;20231;-73
2021/07/26 04:29:16;;;;;;;9.20;7.60;;;;;;;18.71;82.26;100287.53;5063983;28;20644;-74
2021/07/26 04:31:43;;;;;;;9.30;8.00;;;;;;;18.72;82.41;100278.44;5046364;28;20216;-72
2021/07/26 04:34:10;;;;;;;7.80;7.00;;;;;;;18.72;82.71;100281.13;5055300;28;20203;-72
2021/07/26 04:36:36;;;;;;;7.63;6.93;;;;;;;18.74;82.81;100276.44;5048140;28;20708;-70
2021/07/26 04:39:03;;;;;;;11.37;8.27;;;;;;;18.76;83.09;100279.81;5061289;28;20206;-70
2021/07/26 04:41:29;;;;;;;9.13;7.10;;;;;;;18.78;82.93;100274.25;5049414;28;20202;-66
2021/07/26 04:43:57;;;;;;;7.73;6.87;;;;;;;18.79;82.91;100270.56;5057511;28;20702;-72
2021/07/26 04:46:24;;;;;;;11.37;6.97;;;;;;;18.78;82.96;100280.50;5059072;28;20229;-69
2021/07/26 04:48:50;;;;;;;9.03;7.10;;;;;;;18.80;83.12;100274.97;5055336;28;20682;-72
2021/07/26 04:51:17;;;;;;;7.80;7.00;;;;;;;18.82;83.16;100272.91;5064165;28;20202;-68
2021/07/26 04:53:43;;;;;;;8.13;6.97;;;;;;;18.84;83.64;100271.75;5056507;28;20219;-71
2021/07/26 04:56:10;;;;;;;7.97;7.17;;;;;;;18.89;83.81;100273.97;5051696;28;20230;-71
2021/07/26 04:58:37;;;;;;;8.13;7.13;;;;;;;18.93;83.82;100280.75;5044103;28;20213;-68
2021/07/26 05:01:05;;;;;;;7.83;7.03;;;;;;;18.94;83.97;100277.91;5050304;28;20220;-71
2021/07/26 05:03:31;;;;;;;7.60;6.90;;;;;;;18.95;83.98;100282.28;5054711;28;20303;-71
2021/07/26 05:05:58;;;;;;;7.67;6.10;;;;;;;18.98;83.93;100284.69;5055207;28;20234;-68
2021/07/26 05:08:24;;;;;;;8.20;6.30;;;;;;;19.01;83.87;100278.09;5059127;28;20615;-68
2021/07/26 05:10:51;;;;;;;8.07;6.23;;;;;;;19.03;84.02;100281.47;5055386;28;20203;-69
2021/07/26 05:13:17;;;;;;;6.73;6.00;;;;;;;19.06;83.84;100278.47;5062549;28;20212;-71
2021/07/26 05:15:44;;;;;;;7.80;7.00;;;;;;;19.07;84.00;100275.59;5053554;28;20239;-68
2021/07/26 05:18:12;;;;;;;8.60;6.67;;;;;;;19.11;83.75;100280.69;5055702;28;20207;-71
2021/07/26 05:20:38;;;;;;;7.77;6.60;;;;;;;19.10;83.58;100276.28;5055027;28;20206;-65
2021/07/26 05:23:09;;;;;;;7.90;6.43;;;;;;;19.10;83.41;100279.84;5046052;28;20232;-68
2021/07/26 05:25:35;;;;;;;7.40;6.63;;;;;;;19.12;83.74;100277.84;5040944;28;20267;-69
2021/07/26 05:28:02;;;;;;;6.47;5.87;;;;;;;19.15;83.62;100282.06;5045900;28;20212;-69
2021/07/26 05:30:28;;;;;;;9.23;7.40;;;;;;;19.18;83.69;100282.56;5042746;28;20203;-68
2021/07/26 05:32:55;;;;;;;8.10;7.30;;;;;;;19.24;83.89;100289.19;5035743;28;20206;-70
2021/07/26 05:35:22;;;;;;;8.10;7.30;;;;;;;19.29;84.16;100285.00;5036179;28;20240;-68
2021/07/26 05:37:49;;;;;;;7.50;6.80;;;;;;;19.32;83.96;100281.97;5039497;28;20222;-71
2021/07/26 05:40:16;;;;;;;7.13;6.53;;;;;;;19.35;83.94;100280.78;5036555;28;20694;-69
2021/07/26 05:42:42;;;;;;;8.47;6.63;;;;;;;19.39;83.95;100287.56;5037444;28;20220;-70
2021/07/26 05:45:10;;;;;;;8.07;6.97;;;;;;;19.41;84.07;100283.69;5036133;28;20613;-69
2021/07/26 05:47:36;;;;;;;7.43;6.73;;;;;;;19.47;83.93;100286.75;5037500;28;20208;-69
2021/07/26 05:50:05;;;;;;;8.87;6.30;;;;;;;19.50;83.76;100283.78;5036884;28;20673;-69
2021/07/26 05:52:33;;;;;;;8.57;7.57;;;;;;;19.52;84.22;100288.00;5037192;28;20208;-67
2021/07/26 05:55:00;;;;;;;10.43;8.20;;;;;;;19.57;84.25;100282.09;5036353;28;20231;-70
2021/07/26 05:57:27;;;;;;;7.67;6.97;;;;;;;19.59;84.20;100289.03;5034291;28;20207;-70
2021/07/26 05:59:57;;;;;;;7.13;6.53;;;;;;;19.63;84.25;100284.16;5033032;28;20668;-70
2021/07/26 06:02:23;;;;;;;7.70;6.90;;;;;;;19.66;84.31;100287.38;5032297;28;20303;-70
2021/07/26 06:04:50;;;;;;;7.70;6.90;;;;;;;19.71;84.48;100282.28;5035648;28;20228;-70
2021/07/26 06:07:17;;;;;;;7.40;6.70;;;;;;;19.79;84.56;100283.34;5036318;28;20959;-70
2021/07/26 06:09:46;;;;;;;7.40;6.07;;;;;;;19.85;84.24;100280.84;5037758;28;20288;-69
2021/07/26 06:12:12;;;;;;;7.67;6.40;;;;;;;19.94;84.12;100278.97;5045407;28;20290;-69
2021/07/26 06:14:39;;;;;;;7.40;6.27;;;;;;;20.05;84.08;100271.41;5037490;28;20208;-69
2021/07/26 06:17:07;;;;;;;6.73;6.03;;;;;;;20.20;83.98;100276.16;5040057;28;20897;-69
2021/07/26 06:19:34;;;;;;;6.60;6.10;;;;;;;20.33;83.52;100269.22;5034946;28;20216;-69
2021/07/26 06:22:00;;;;;;;7.97;6.30;;;;;;;20.49;82.96;100272.94;5035115;28;20200;-69
2021/07/26 06:24:27;;;;;;;7.40;6.57;;;;;;;20.64;82.80;100274.78;5042735;28;20694;-69
2021/07/26 06:26:56;;;;;;;7.23;5.90;;;;;;;20.79;81.90;100275.78;5042769;28;20234;-69
2021/07/26 06:29:22;;;;;;;6.97;5.60;;;;;;;20.97;81.74;100274.72;5038692;28;20208;-69
2021/07/26 06:31:49;;;;;;;5.93;5.43;;;;;;;21.15;81.18;100270.78;5037100;28;20981;-69
2021/07/26 06:34:15;;;;;;;6.50;5.90;;;;;;;21.32;80.27;100277.00;5036375;28;20210;-68
2021/07/26 06:36:42;;;;;;;6.77;5.23;;;;;;;21.54;79.83;100278.09;5046420;28;20721;-68
2021/07/26 06:39:10;;;;;;;5.37;4.63;;;;;;;21.72;78.49;100275.13;5037319;28;20203;-68
2021/07/26 06:41:36;;;;;;;5.63;5.03;;;;;;;21.88;77.12;100280.44;5046570;28;20204;-68
2021/07/26 06:44:05;;;;;;;5.30;4.80;;;;;;;22.04;75.92;100279.53;5033465;28;20224;-68
2021/07/26 06:46:31;;;;;;;5.30;4.80;;;;;;;22.23;75.24;100281.78;5045502;28;20712;-68
2021/07/26 06:48:58;;;;;;;4.82;4.43;;;;;;;22.43;74.38;100291.09;5039878;28;20224;-68
2021/07/26 06:51:26;;;;;;;4.53;4.13;;;;;;;22.60;73.15;100288.25;5044024;28;20205;-68
2021/07/26 06:53:52;;;;;;;5.20;4.70;;;;;;;22.72;72.04;100293.06;5039494;28;20199;-68
2021/07/26 06:56:19;;;;;;;7.85;5.22;;;;;;;22.89;71.83;100285.63;5036376;28;20230;-68
2021/07/26 06:58:45;;;;;;;5.45;4.95;;;;;;;23.09;71.16;100296.81;5038364;28;20205;-68
2021/07/26 07:01:14;;;;;;;6.95;5.47;;;;;;;23.22;69.50;100296.97;5039193;28;20210;-68
2021/07/26 07:03:41;;;;;;;4.97;4.47;;;;;;;23.35;69.45;100288.16;5038444;28;20221;-67
2021/07/26 07:06:09;;;;;;;5.63;5.13;;;;;;;23.55;69.03;100281.16;5034178;28;20224;-68
2021/07/26 07:08:36;;;;;;;5.75;5.25;;;;;;;23.75;68.39;100287.69;5039904;28;20577;-68
2021/07/26 07:11:06;;;;;;;5.88;5.10;;;;;;;23.94;67.68;100277.22;5044801;28;20206;-68
2021/07/26 07:13:33;;;;;;;5.90;4.70;;;;;;;;;;5038145;28;20206;-67
2021/07/26 07:16:00;;;;;;;7.03;5.95;;;;;;;24.27;66.29;100283.03;5035796;28;20229;-67
2021/07/26 07:18:28;;;;;;;6.70;5.25;;;;;;;24.40;65.69;100275.81;5037106;28;20223;-67
2021/07/26 07:20:54;;;;;;;5.72;5.22;;;;;;;24.55;65.20;100275.72;5037366;28;20200;-68
2021/07/26 07:23:21;;;;;;;7.38;4.70;;;;;;;24.69;64.33;100274.81;5035522;28;20229;-68
2021/07/26 07:25:47;;;;;;;6.13;4.85;;;;;;;24.80;64.01;100278.88;5035617;28;20222;-68
2021/07/26 07:28:14;;;;;;;5.97;4.47;;;;;;;24.90;62.89;100273.94;5034030;28;20209;-68
2021/07/26 07:30:40;;;;;;;5.05;4.45;;;;;;;25.04;62.47;100274.88;5048703;28;20205;-69
2021/07/26 07:33:07;;;;;;;7.13;4.45;;;;;;;25.15;61.72;100277.03;5063759;28;20200;-69
2021/07/26 07:35:35;;;;;;;5.80;3.90;;;;;;;25.18;61.27;100268.47;5054039;28;20240;-69
2021/07/26 07:38:01;;;;;;;4.60;4.15;;;;;;;25.22;61.07;100265.13;5050638;28;20203;-69
2021/07/26 07:40:28;;;;;;;4.22;3.80;;;;;;;25.29;60.36;100259.69;5058643;28;20208;-69
2021/07/26 07:42:54;;;;;;;4.85;4.35;;;;;;;25.37;60.35;100265.00;5043557;28;20295;-69
2021/07/26 07:45:21;;;;;;;3.97;3.58;;;;;;;25.42;59.91;100259.78;5050962;28;20241;-69
2021/07/26 07:47:48;;;;;;;4.53;4.00;;;;;;;25.48;59.07;100274.47;5063072;28;20207;-69
2021/07/26 07:50:16;;;;;;;4.95;3.88;;;;;;;25.57;59.10;100267.81;5058118;28;20654;-69
2021/07/26 07:52:44;;;;;;;4.18;3.78;;;;;;;25.67;58.66;100268.28;5058172;28;20210;-69
2021/07/26 07:55:11;;;;;;;4.82;3.20;;;;;;;25.77;57.77;100276.09;5070805;28;20222;-69
2021/07/26 07:57:38;;;;;;;4.55;3.78;;;;;;;25.86;57.36;100274.88;5065111;28;20201;-69
2021/07/26 08:00:05;;;;;;;3.40;2.78;;;;;;;25.92;55.44;100276.78;5056471;28;20223;-70
2021/07/26 08:02:32;;;;;;;2.80;2.45;;;;;;;25.96;55.18;100278.06;5058587;28;20664;-69
2021/07/26 08:04:59;;;;;;;2.78;2.58;;;;;;;26.07;54.16;100277.44;5065005;28;20231;-69
2021/07/26 08:07:25;;;;;;;3.30;3.00;;;;;;;26.12;52.83;100277.66;5063791;28;20500;-69
2021/07/26 08:09:53;;;;;;;3.17;2.58;;;;;;;26.22;53.17;100283.56;5059340;28;20201;-70
2021/07/26 08:12:19;;;;;;;3.05;2.72;;;;;;;26.33;51.84;100276.69;5067722;28;20208;-69
2021/07/26 08:14:46;;;;;;;3.00;2.80;;;;;;;26.40;50.93;100274.78;5058724;28;20672;-69
2021/07/26 08:17:13;;;;;;;3.28;2.72;;;;;;;26.50;51.71;100282.56;5056233;28;20228;-69
2021/07/26 08:19:39;;;;;;;2.80;2.50;;;;;;;26.63;50.59;100268.91;5063384;28;20202;-70
2021/07/26 08:22:06;;;;;;;2.97;2.58;;;;;;;26.74;50.40;100268.25;5065002;28;20208;-69
2021/07/26 08:24:32;;;;;;;4.22;2.90;;;;;;;26.89;50.79;100273.50;5066280;28;20221;-69
2021/07/26 08:27:00;;;;;;;2.80;2.60;;;;;;;27.02;51.46;100283.63;5049071;28;20221;-69
2021/07/26 08:29:27;;;;;;;3.05;2.67;;;;;;;27.15;51.26;100278.13;5048655;28;20214;-69
2021/07/26 08:31:53;;;;;;;3.78;3.17;;;;;;;27.29;50.92;100286.06;5047531;28;20208;-69
2021/07/26 08:34:19;;;;;;;3.17;2.60;;;;;;;27.42;50.53;100274.25;5046704;28;20204;-69
2021/07/26 08:36:46;;;;;;;3.25;2.72;;;;;;;27.53;50.40;100270.00;5048584;28;20562;-69
2021/07/26 08:39:12;;;;;;;3.40;2.70;;;;;;;27.65;50.23;100273.75;5068510;28;20205;-68
2021/07/26 08:41:41;;;;;;;4.43;3.17;;;;;;;27.74;49.81;100272.47;5054642;28;20209;-69
2021/07/26 08:44:09;;;;;;;5.22;3.13;;;;;;;27.88;50.21;100265.88;5043418;28;20225;-69
2021/07/26 08:46:37;;;;;;;10.20;3.40;;;;;;;28.02;49.51;100274.00;5049520;28;20237;-69
2021/07/26 08:49:04;;;;;;;4.15;3.13;;;;;;;28.10;48.73;100274.59;5050869;28;20255;-69
2021/07/26 08:51:31;;;;;;;3.13;2.85;;;;;;;28.12;48.34;100277.94;5049879;28;20210;-70
2021/07/26 08:54:01;;;;;;;3.30;3.00;;;;;;;28.18;48.82;100279.78;5049827;28;20208;-71
2021/07/26 08:56:27;;;;;;;3.42;2.65;;;;;;;28.25;48.19;100279.78;5056224;28;20228;-71
2021/07/26 08:58:54;;;;;;;2.95;2.72;;;;;;;28.33;47.58;100288.56;5042549;28;20655;-71
2021/07/26 09:01:22;;;;;;;3.30;3.00;;;;;;;28.44;47.97;100280.69;5042100;28;20224;-70
2021/07/26 09:03:52;;;;;;;3.05;2.75;;;;;;;28.58;48.15;100274.88;5039211;28;20202;-71
2021/07/26 09:06:18;;;;;;;2.90;2.60;;;;;;;28.69;46.17;100278.78;5043572;28;20230;-71
2021/07/26 09:08:45;;;;;;;2.85;2.65;;;;;;;28.72;46.51;100274.75;5038584;28;20206;-70
2021/07/26 09:11:11;;;;;;;2.72;2.45;;;;;;;28.80;46.20;100286.31;5040338;28;20202;-71
2021/07/26 09:13:42;;;;;;;3.15;2.85;;;;;;;28.91;45.58;100274.63;5036313;28;20668;-71
2021/07/26 09:16:18;;;;;;;3.38;2.60;;;;;;;29.04;44.65;100273.63;5032105;28;20229;-71
2021/07/26 09:18:48;;;;;;;2.60;2.40;;;;;;;29.16;44.38;100281.97;5040032;28;20209;-68
2021/07/26 09:21:14;;;;;;;2.80;2.60;;;;;;;29.21;44.53;100282.09;5035819;28;20213;-69
2021/07/26 09:24:03;;;;;;;3.15;2.78;;;;;;;29.15;43.68;100280.28;5044224;28;20212;-69
2021/07/26 09:26:30;;;;;;;3.53;3.22;;;;;;;29.11;43.31;100290.88;5046158;28;20226;-69
2021/07/26 09:28:57;;;;;;;3.05;2.85;;;;;;;29.05;43.95;100291.75;5064120;28;20200;-69
2021/07/26 09:31:24;;;;;;;3.08;2.80;;;;;;;29.08;44.10;100287.72;5058249;28;20579;-69
2021/07/26 09:33:53;;;;;;;3.28;2.70;;;;;;;29.09;44.44;100289.41;5065132;28;20211;-69
2021/07/26 09:36:21;;;;;;;2.97;2.60;;;;;;;29.10;43.65;100288.34;5059718;28;20313;-69
2021/07/26 09:39:02;;;;;;;2.83;2.58;;;;;;;29.07;42.98;100283.31;5069012;28;20204;-69
2021/07/26 09:41:43;;;;;;;2.90;2.20;;;;;;;28.97;42.59;100281.94;5053279;28;20240;-69
2021/07/26 09:44:10;;;;;;;2.75;2.55;;;;;;;28.96;42.55;100283.00;5042367;28;20227;-69
2021/07/26 09:46:39;;;;;;;2.53;2.33;;;;;;;28.99;42.33;100288.03;5056313;28;20239;-70
2021/07/26 09:49:11;;;;;;;3.22;2.60;;;;;;;29.08;42.54;100282.25;5062594;28;20208;-69
2021/07/26 09:51:38;;;;;;;2.88;2.33;;;;;;;29.19;42.36;100278.78;5065777;28;20212;-69
2021/07/26 09:54:05;;;;;;;3.40;2.90;;;;;;;29.34;42.79;100276.50;5056214;28;20209;-69
2021/07/26 09:56:33;;;;;;;3.13;2.90;;;;;;;29.49;42.65;100276.97;5063786;28;20224;-69
2021/07/26 09:59:01;;;;;;;2.95;2.55;;;;;;;29.61;42.73;100280.59;5056317;28;20198;-69
2021/07/26 10:01:28;;;;;;;4.35;3.00;;;;;;;29.74;41.78;100267.81;5058673;28;20295;-69
2021/07/26 10:03:54;;;;;;;2.83;2.55;;;;;;;29.79;40.72;100276.16;5055253;28;20206;-69
2021/07/26 10:06:22;;;;;;;3.67;2.70;;;;;;;29.77;39.96;100273.66;5058430;28;20349;-69
2021/07/26 10:08:50;;;;;;;2.25;2.08;;;;;;;29.82;39.59;100275.69;5060748;28;20231;-69
2021/07/26 10:11:18;;;;;;;3.17;2.13;;;;;;;29.88;39.67;100272.03;5064413;28;20299;-69
2021/07/26 10:13:46;;;;;;;3.28;2.13;;;;;;;29.94;39.95;100271.94;5066807;28;20204;-69
2021/07/26 10:16:14;;;;;;;2.40;2.20;;;;;;;30.01;39.92;100267.22;5045634;22;20227;-81
2021/07/26 10:18:43;;;;;;;4.15;2.47;;;;;;;30.06;39.71;100272.03;5012385;28;20211;-80
2021/07/26 10:21:13;;;;;;;4.95;2.60;;;;;;;30.20;40.42;100269.91;5030376;28;20198;-81
2021/07/26 10:23:44;;;;;;;3.28;2.80;;;;;;;30.31;39.43;100272.66;5032455;28;20220;-80
2021/07/26 10:26:14;;;;;;;2.60;2.40;;;;;;;30.35;39.35;100273.88;5022945;28;20229;-80
2021/07/26 10:28:44;;;;;;;2.40;2.20;;;;;;;30.33;38.60;100276.03;5022248;28;20293;-80
2021/07/26 10:31:38;;;;;;;2.70;2.22;;;;;;;30.33;38.67;100273.28;5021679;28;20584;-80
2021/07/26 10:34:07;;;;;;;2.53;2.13;;;;;;;30.39;38.34;100271.50;5025466;28;20268;-81
2021/07/26 10:36:57;;;;;;;2.60;2.40;;;;;;;30.38;38.28;100275.31;5031891;28;20639;-80
2021/07/26 10:39:28;;;;;;;2.40;2.20;;;;;;;30.34;37.57;100274.97;5014563;28;20568;-83
2021/07/26 10:42:04;;;;;;;3.13;2.60;;;;;;;30.27;38.00;100276.16;5027307;28;20206;-81
2021/07/26 10:44:46;;;;;;;4.05;2.40;;;;;;;30.21;37.93;100272.41;5029448;28;20336;-81
2021/07/26 10:47:14;;;;;;;2.50;2.30;;;;;;;30.21;38.30;100277.06;5029414;28;20203;-82
2021/07/26 10:50:08;;;;;;;4.50;3.00;;;;;;;30.13;39.15;100275.50;5029373;28;20210;-82
2021/07/26 10:52:48;;;;;;;3.70;2.78;;;;;;;29.99;39.38;100274.84;5021329;28;20595;-81
2021/07/26 10:55:58;;;;;;;2.35;2.03;;;;;;;29.90;39.45;100275.41;5029487;28;20829;-81
2021/07/26 10:59:00;;;;;;;2.70;2.20;;;;;;;29.81;40.35;100277.59;5028403;28;20614;-82
2021/07/26 11:01:57;;;;;;;5.40;2.80;;;;;;;29.82;41.48;100265.56;5024513;28;20691;-82
2021/07/26 11:04:37;;;;;;;2.72;2.53;;;;;;;29.85;40.55;100264.25;5028095;28;20589;-82
2021/07/26 11:07:06;;;;;;;2.72;2.53;;;;;;;29.86;40.65;100264.03;5026429;28;20206;-81
2021/07/26 11:09:46;;;;;;;2.85;2.40;;;;;;;29.88;41.10;100269.28;5030336;28;20206;-82
2021/07/26 11:12:13;;;;;;;2.35;2.13;;;;;;;29.93;40.16;100263.91;5033090;28;20198;-82
2021/07/26 11:15:14;;;;;;;2.67;2.10;;;;;;;29.92;39.49;100265.81;5029789;28;20202;-81
2021/07/26 11:18:32;;;;;;;3.00;2.30;;;;;;;29.98;39.80;100269.59;5030910;28;20228;-81
2021/07/26 11:21:07;;;;;;;2.45;2.25;;;;;;;30.02;38.60;100266.16;5028139;28;20211;-81
2021/07/26 11:23:51;;;;;;;2.72;2.15;;;;;;;30.03;38.32;100256.84;5020857;28;20210;-80
2021/07/26 11:26:23;;;;;;;2.45;2.25;;;;;;;30.10;37.63;100251.22;5029839;28;20233;-82
2021/07/26 11:28:52;;;;;;;2.30;2.10;;;;;;;30.18;37.51;100242.66;5027105;28;20207;-82
2021/07/26 11:31:28;;;;;;;2.45;2.10;;;;;;;30.19;37.49;100243.50;5025647;28;20213;-82